createdAt,value
2019-03-18T00:00:51.647Z,97391.00
2019-03-18T00:04:52.523Z,97404.00
2019-03-18T00:08:53.361Z,97405.00
2019-03-18T00:12:54.354Z,97416.00
2019-03-18T00:16:55.254Z,97414.00
2019-03-18T00:20:56.120Z,97424.00
2019-03-18T00:24:56.988Z,97437.00
2019-03-18T00:28:58.004Z,97439.00
2019-03-18T00:32:58.996Z,97448.00
2019-03-18T00:36:59.966Z,97451.00
2019-03-18T00:41:00.859Z,97450.00
2019-03-18T00:45:14.156Z,97445.00
2019-03-18T00:49:05.842Z,97455.00
2019-03-18T00:53:07.229Z,97447.00
2019-03-18T00:57:08.128Z,97458.00
2019-03-18T01:01:09.115Z,97453.00
2019-03-18T01:05:10.296Z,97449.00
2019-03-18T01:09:11.156Z,97448.00
2019-03-18T01:13:12.070Z,97441.00
2019-03-18T01:17:12.946Z,97433.00
2019-03-18T01:21:13.789Z,97434.00
2019-03-18T01:25:14.764Z,97433.00
2019-03-18T01:29:15.671Z,97428.00
2019-03-18T01:33:16.568Z,97439.00
2019-03-18T01:37:17.438Z,97437.00
2019-03-18T01:41:18.294Z,97431.00
2019-03-18T01:45:19.285Z,97442.00
2019-03-18T01:49:20.153Z,97442.00
2019-03-18T01:53:21.025Z,97444.00
2019-03-18T01:57:21.915Z,97445.00
2019-03-18T02:01:22.866Z,97440.00
2019-03-18T02:05:23.765Z,97448.00
2019-03-18T02:09:24.660Z,97449.00
2019-03-18T02:13:25.673Z,97451.00
2019-03-18T02:17:26.576Z,97444.00
2019-03-18T02:21:27.439Z,97451.00
2019-03-18T02:25:28.314Z,97463.00
2019-03-18T02:29:29.186Z,97463.00
2019-03-18T02:33:30.136Z,97463.00
2019-03-18T02:37:31.121Z,97472.00
2019-03-18T02:41:31.987Z,97468.00
2019-03-18T02:45:32.860Z,97483.00
2019-03-18T02:49:33.700Z,97488.00
2019-03-18T02:53:34.601Z,97481.00
2019-03-18T02:57:35.669Z,97478.00
2019-03-18T03:01:36.691Z,97482.00
2019-03-18T03:05:37.656Z,97473.00
2019-03-18T03:09:38.625Z,97473.00
2019-03-18T03:13:39.595Z,97490.00
2019-03-18T03:17:40.612Z,97491.00
2019-03-18T03:21:41.588Z,97493.00
2019-03-18T03:25:42.464Z,97496.00
2019-03-18T03:29:43.370Z,97497.00
2019-03-18T03:33:44.354Z,97496.00
2019-03-18T03:37:45.234Z,97502.00
2019-03-18T03:41:46.209Z,97512.00
2019-03-18T03:45:47.190Z,97514.00
2019-03-18T03:49:48.072Z,97523.00
2019-03-18T03:53:49.203Z,97528.00
2019-03-18T03:57:50.369Z,97530.00
2019-03-18T04:01:51.745Z,97531.00
2019-03-18T04:05:52.722Z,97533.00
2019-03-18T04:09:53.614Z,97533.00
2019-03-18T04:13:54.493Z,97544.00
2019-03-18T04:17:55.553Z,97550.00
2019-03-18T04:21:56.423Z,97549.00
2019-03-18T04:25:57.310Z,97555.00
2019-03-18T04:29:58.335Z,97570.00
2019-03-18T04:33:59.209Z,97566.00
2019-03-18T04:38:00.099Z,97574.00
2019-03-18T04:42:01.125Z,97586.00
2019-03-18T04:46:02.031Z,97599.00
2019-03-18T04:50:04.795Z,97604.00
2019-03-18T04:54:05.761Z,97601.00
2019-03-18T04:58:06.644Z,97606.00
2019-03-18T05:02:07.539Z,97594.00
2019-03-18T05:06:09.748Z,97588.00
2019-03-18T05:10:10.734Z,97587.00
2019-03-18T05:14:11.579Z,97595.00
2019-03-18T05:18:12.489Z,97594.00
2019-03-18T05:22:13.387Z,97599.00
2019-03-18T05:26:14.366Z,97601.00
2019-03-18T05:30:15.310Z,97609.00
2019-03-18T05:34:16.323Z,97608.00
2019-03-18T05:38:17.188Z,97607.00
2019-03-18T05:42:18.068Z,97619.00
2019-03-18T05:46:19.686Z,97620.00
2019-03-18T05:50:20.558Z,97629.00
2019-03-18T05:54:22.222Z,97644.00
2019-03-18T05:58:23.218Z,97644.00
2019-03-18T06:02:24.154Z,97649.00
2019-03-18T06:06:25.208Z,97657.00
2019-03-18T06:10:26.276Z,97655.00
2019-03-18T06:14:27.173Z,97656.00
2019-03-18T06:18:28.058Z,97642.00
2019-03-18T06:22:28.917Z,97659.00
2019-03-18T06:26:29.806Z,97664.00
2019-03-18T06:30:30.732Z,97664.00
2019-03-18T06:34:31.807Z,97668.00
2019-03-18T06:38:32.788Z,97675.00
2019-03-18T06:42:33.672Z,97689.00
2019-03-18T06:46:34.571Z,97679.00
2019-03-18T06:50:35.518Z,97693.00
2019-03-18T06:54:36.411Z,97701.00
2019-03-18T06:58:39.376Z,97693.00
2019-03-18T07:02:40.387Z,97701.00
2019-03-18T07:06:41.297Z,97699.00
2019-03-18T07:10:42.216Z,97702.00
2019-03-18T07:14:43.165Z,97715.00
2019-03-18T07:18:44.047Z,97714.00
2019-03-18T07:22:44.936Z,97716.00
2019-03-18T07:26:45.922Z,97720.00
2019-03-18T07:30:46.823Z,97725.00
2019-03-18T07:34:47.880Z,97742.00
2019-03-18T07:38:48.758Z,97747.00
2019-03-18T07:42:49.636Z,97749.00
2019-03-18T07:46:50.622Z,97762.00
2019-03-18T07:50:51.500Z,97767.00
2019-03-18T07:54:52.400Z,97781.00
2019-03-18T07:58:53.285Z,97784.00
2019-03-18T08:02:54.157Z,97798.00
2019-03-18T08:06:55.136Z,97810.00
2019-03-18T08:10:56.012Z,97819.00
2019-03-18T08:14:56.996Z,97829.00
2019-03-18T08:18:57.893Z,97826.00
2019-03-18T08:22:58.802Z,97834.00
2019-03-18T08:26:59.795Z,97840.00
2019-03-18T08:31:00.784Z,97850.00
2019-03-18T08:35:01.778Z,97858.00
2019-03-18T08:39:05.237Z,97868.00
2019-03-18T08:43:06.147Z,97870.00
2019-03-18T08:47:07.036Z,97880.00
2019-03-18T08:51:07.972Z,97872.00
2019-03-18T08:55:09.685Z,97887.00
2019-03-18T08:59:10.701Z,97878.00
2019-03-18T09:03:11.643Z,97903.00
2019-03-18T09:07:12.562Z,97892.00
2019-03-18T09:11:13.547Z,97902.00
2019-03-18T09:15:14.590Z,97904.00
2019-03-18T09:19:15.535Z,97911.00
2019-03-18T09:23:16.401Z,97921.00
2019-03-18T09:27:17.272Z,97927.00
2019-03-18T09:31:18.226Z,97925.00
2019-03-18T09:35:19.245Z,97920.00
2019-03-18T09:39:20.115Z,97925.00
2019-03-18T09:43:21.086Z,97915.00
2019-03-18T09:47:22.173Z,97920.00
2019-03-18T09:51:23.276Z,97932.00
2019-03-18T09:55:24.155Z,97943.00
2019-03-18T09:59:25.131Z,97951.00
2019-03-18T10:03:26.009Z,97947.00
2019-03-18T10:07:26.972Z,97945.00
2019-03-18T10:11:27.980Z,97951.00
2019-03-18T10:15:29.042Z,97959.00
2019-03-18T10:19:33.799Z,97957.00
2019-03-18T10:23:32.814Z,97959.00
2019-03-18T10:27:33.673Z,97969.00
2019-03-18T10:31:34.602Z,97962.00
2019-03-18T10:35:35.522Z,97952.00
2019-03-18T10:39:36.401Z,97958.00
2019-03-18T10:43:37.327Z,97963.00
2019-03-18T10:47:38.318Z,97945.00
2019-03-18T10:51:39.284Z,97958.00
2019-03-18T10:55:40.184Z,97957.00
2019-03-18T10:59:41.121Z,97964.00
2019-03-18T11:03:42.358Z,97949.00
2019-03-18T11:07:43.334Z,97961.00
2019-03-18T11:11:44.316Z,97966.00
2019-03-18T11:15:45.218Z,97988.00
2019-03-18T11:19:57.485Z,98022.00
2019-03-18T11:23:48.908Z,98023.00
2019-03-18T11:27:49.894Z,98029.00
2019-03-18T11:31:50.774Z,98023.00
2019-03-18T11:35:51.763Z,98007.00
2019-03-18T11:39:52.754Z,98015.00
2019-03-18T11:43:53.695Z,98004.00
2019-03-18T11:47:54.688Z,98000.00
2019-03-18T11:51:55.610Z,97994.00
2019-03-18T11:55:56.485Z,97998.00
2019-03-18T11:59:57.340Z,97996.00
2019-03-18T12:03:58.434Z,98023.00
2019-03-18T12:07:59.402Z,98009.00
2019-03-18T12:12:00.299Z,98006.00
2019-03-18T12:16:01.203Z,98022.00
2019-03-18T12:20:04.488Z,98024.00
2019-03-18T12:24:05.450Z,98026.00
2019-03-18T12:28:06.375Z,98006.00
2019-03-18T12:32:07.358Z,98012.00
2019-03-18T12:36:08.235Z,98012.00
2019-03-18T12:40:13.561Z,98048.00
2019-03-18T12:44:14.445Z,98034.00
2019-03-18T12:48:15.436Z,98042.00
2019-03-18T12:52:16.302Z,98044.00
2019-03-18T12:56:17.396Z,98038.00
2019-03-18T13:00:33.021Z,98038.00
2019-03-18T13:04:34.327Z,98039.00
2019-03-18T13:08:35.417Z,98033.00
2019-03-18T13:12:36.284Z,98030.00
2019-03-18T13:16:37.165Z,98030.00
2019-03-18T13:20:38.255Z,98029.00
2019-03-18T13:24:39.185Z,98024.00
2019-03-18T13:28:40.179Z,98027.00
2019-03-18T13:32:41.043Z,98009.00
2019-03-18T13:36:42.055Z,98025.00
2019-03-18T13:40:45.837Z,98007.00
2019-03-18T13:44:45.738Z,98015.00
2019-03-18T13:48:46.632Z,98003.00
2019-03-18T13:52:47.715Z,98002.00
2019-03-18T13:56:48.643Z,98003.00
2019-03-18T14:00:49.676Z,98000.00
2019-03-18T14:04:50.658Z,98003.00
2019-03-18T14:08:51.514Z,98009.00
2019-03-18T14:12:52.726Z,98007.00
2019-03-18T14:16:53.708Z,98012.00
2019-03-18T14:20:54.703Z,98011.00
2019-03-18T14:24:55.588Z,98011.00
2019-03-18T14:28:56.474Z,98007.00
2019-03-18T14:32:57.501Z,98013.00
2019-03-18T14:36:58.498Z,98013.00
2019-03-18T14:40:59.519Z,98022.00
2019-03-18T14:45:00.455Z,98025.00
2019-03-18T14:49:01.335Z,98038.00
2019-03-18T14:53:02.443Z,98036.00
2019-03-18T14:57:03.317Z,98059.00
2019-03-18T15:01:04.497Z,98101.00
2019-03-18T15:05:08.880Z,98104.00
2019-03-18T15:09:09.845Z,98078.00
2019-03-18T15:13:10.753Z,98081.00
2019-03-18T15:17:11.724Z,98087.00
2019-03-18T15:21:12.635Z,98093.00
2019-03-18T15:25:33.065Z,98091.00
2019-03-18T15:29:33.974Z,98075.00
2019-03-18T15:33:34.954Z,98080.00
2019-03-18T15:37:35.956Z,98080.00
2019-03-18T15:41:36.920Z,98068.00
2019-03-18T15:45:37.853Z,98070.00
2019-03-18T15:49:38.837Z,98077.00
2019-03-18T15:53:39.883Z,98071.00
2019-03-18T15:57:40.742Z,98069.00
2019-03-18T16:01:44.662Z,98071.00
2019-03-18T16:05:44.439Z,98082.00
2019-03-18T16:09:45.343Z,98065.00
2019-03-18T16:13:46.242Z,98087.00
2019-03-18T16:17:47.185Z,98084.00
2019-03-18T16:21:48.084Z,98096.00
2019-03-18T16:25:48.989Z,98098.00
2019-03-18T16:29:49.973Z,98100.00
2019-03-18T16:33:51.089Z,98101.00
2019-03-18T16:37:52.197Z,98113.00
2019-03-18T16:41:54.436Z,98109.00
2019-03-18T16:45:55.543Z,98116.00
2019-03-18T16:49:56.510Z,98126.00
2019-03-18T16:53:57.511Z,98135.00
2019-03-18T16:57:58.573Z,98137.00
2019-03-18T17:01:59.459Z,98148.00
2019-03-18T17:06:00.423Z,98161.00
2019-03-18T17:10:01.720Z,98169.00
2019-03-18T17:14:02.978Z,98172.00
2019-03-18T17:18:04.208Z,98168.00
2019-03-18T17:22:05.909Z,98175.00
2019-03-18T17:26:10.453Z,98179.00
2019-03-18T17:30:18.245Z,98194.00
2019-03-18T17:34:19.231Z,98196.00
2019-03-18T17:38:20.213Z,98200.00
2019-03-18T17:42:21.342Z,98212.00
2019-03-18T17:46:23.009Z,98209.00
2019-03-18T17:50:29.203Z,98213.00
2019-03-18T17:54:30.283Z,98224.00
2019-03-18T17:58:31.290Z,98225.00
2019-03-18T18:02:32.155Z,98224.00
2019-03-18T18:06:33.055Z,98228.00
2019-03-18T18:10:34.039Z,98234.00
2019-03-18T18:14:35.047Z,98245.00
2019-03-18T18:18:36.041Z,98244.00
2019-03-18T18:22:37.054Z,98252.00
2019-03-18T18:26:37.937Z,98259.00
2019-03-18T18:30:39.549Z,98260.00
2019-03-18T18:34:40.547Z,98266.00
2019-03-18T18:38:41.471Z,98294.00
2019-03-18T18:42:42.530Z,98289.00
2019-03-18T18:46:43.451Z,98297.00
2019-03-18T18:50:44.392Z,98307.00
2019-03-18T18:54:45.312Z,98315.00
2019-03-18T18:58:46.297Z,98314.00
2019-03-18T19:02:47.545Z,98318.00
2019-03-18T19:06:48.453Z,98320.00
2019-03-18T19:10:49.550Z,98333.00
2019-03-18T19:14:50.581Z,98335.00
2019-03-18T19:18:51.452Z,98326.00
2019-03-18T19:22:52.461Z,98334.00
2019-03-18T19:26:53.419Z,98331.00
2019-03-18T19:30:54.416Z,98348.00
2019-03-18T19:34:55.397Z,98345.00
2019-03-18T19:38:56.527Z,98345.00
2019-03-18T19:42:57.440Z,98356.00
2019-03-18T19:46:58.342Z,98358.00
2019-03-18T19:50:59.255Z,98357.00
2019-03-18T19:55:00.326Z,98364.00
2019-03-18T19:59:03.300Z,98368.00
2019-03-18T20:03:04.316Z,98382.00
2019-03-18T20:07:05.501Z,98378.00
2019-03-18T20:11:06.518Z,98377.00
2019-03-18T20:15:12.116Z,98382.00
2019-03-18T20:19:13.254Z,98381.00
2019-03-18T20:23:14.466Z,98386.00
2019-03-18T20:27:15.347Z,98392.00
2019-03-18T20:31:25.431Z,98392.00
2019-03-18T20:35:22.881Z,98400.00
2019-03-18T20:39:23.850Z,98400.00
2019-03-18T20:43:24.754Z,98399.00
2019-03-18T20:47:25.628Z,98408.00
2019-03-18T20:51:26.586Z,98418.00
2019-03-18T20:55:28.093Z,98427.00
2019-03-18T20:59:29.189Z,98432.00
2019-03-18T21:03:30.162Z,98425.00
2019-03-18T21:07:31.226Z,98425.00
2019-03-18T21:11:32.229Z,98432.00
2019-03-18T21:15:33.261Z,98432.00
2019-03-18T21:19:34.465Z,98445.00
2019-03-18T21:23:35.484Z,98451.00
2019-03-18T21:27:36.754Z,98444.00
2019-03-18T21:31:37.855Z,98444.00
2019-03-18T21:35:38.810Z,98457.00
2019-03-18T21:39:39.769Z,98447.00
2019-03-18T21:43:40.640Z,98459.00
2019-03-18T21:47:41.750Z,98477.00
2019-03-18T21:51:42.663Z,98476.00
2019-03-18T21:55:43.550Z,98470.00
2019-03-18T21:59:44.515Z,98482.00
2019-03-18T22:03:45.425Z,98487.00
2019-03-18T22:07:46.505Z,98481.00
2019-03-18T22:11:47.446Z,98480.00
2019-03-18T22:15:48.304Z,98482.00
2019-03-18T22:19:49.211Z,98488.00
2019-03-18T22:23:50.299Z,98492.00
2019-03-18T22:27:51.169Z,98490.00
2019-03-18T22:31:52.089Z,98477.00
2019-03-18T22:35:52.988Z,98479.00
2019-03-18T22:39:53.925Z,98487.00
2019-03-18T22:43:56.740Z,98494.00
2019-03-18T22:47:57.875Z,98493.00
2019-03-18T22:51:59.826Z,98494.00
2019-03-18T22:56:00.999Z,98492.00
2019-03-18T23:00:04.784Z,98493.00
2019-03-18T23:04:05.751Z,98502.00
2019-03-18T23:08:06.804Z,98499.00
2019-03-18T23:12:07.713Z,98488.00
2019-03-18T23:16:08.735Z,98492.00
2019-03-18T23:20:09.854Z,98503.00
2019-03-18T23:24:12.058Z,98507.00
2019-03-18T23:28:13.132Z,98510.00
2019-03-18T23:32:14.206Z,98516.00
2019-03-18T23:36:16.721Z,98521.00
2019-03-18T23:40:17.634Z,98525.00
2019-03-18T23:44:18.957Z,98522.00
2019-03-18T23:48:19.985Z,98524.00
2019-03-18T23:52:20.869Z,98534.00
2019-03-18T23:56:22.103Z,98538.00
